createdAt,value
2019-02-11T00:05:01.862Z,0.57
2019-02-11T00:10:08.249Z,0.50
2019-02-11T00:15:13.539Z,0.50
2019-02-11T00:20:19.171Z,0.40
2019-02-11T00:25:24.258Z,0.50
2019-02-11T00:30:29.352Z,0.50
2019-02-11T00:35:34.931Z,0.50
2019-02-11T00:40:39.933Z,0.50
2019-02-11T00:45:45.123Z,0.50
2019-02-11T00:50:50.618Z,0.50
2019-02-11T00:55:56.442Z,0.40
2019-02-11T01:01:02.507Z,0.53
2019-02-11T01:06:07.736Z,0.70
2019-02-11T01:11:13.036Z,0.70
2019-02-11T01:16:18.195Z,1.03
2019-02-11T01:21:24.367Z,1.00
2019-02-11T01:26:29.445Z,0.80
2019-02-11T01:31:34.662Z,0.80
2019-02-11T01:36:39.784Z,0.90
2019-02-11T01:41:46.332Z,0.90
2019-02-11T01:46:51.786Z,1.00
2019-02-11T01:51:57.851Z,1.10
2019-02-11T01:57:02.933Z,0.93
2019-02-11T02:02:07.931Z,0.70
2019-02-11T02:07:13.301Z,0.77
2019-02-11T02:12:18.549Z,0.80
2019-02-11T02:17:24.862Z,0.80
2019-02-11T02:22:29.943Z,0.97
2019-02-11T02:27:34.949Z,0.77
2019-02-11T02:32:40.051Z,0.90
2019-02-11T02:37:45.159Z,1.00
2019-02-11T02:42:50.966Z,1.17
2019-02-11T02:47:56.051Z,0.97
2019-02-11T02:53:01.441Z,1.20
2019-02-11T02:58:06.515Z,1.30
2019-02-11T03:03:11.609Z,1.10
2019-02-11T03:08:17.664Z,1.27
2019-02-11T03:13:22.766Z,1.60
2019-02-11T03:18:27.845Z,1.63
2019-02-11T03:23:34.285Z,1.87
2019-02-11T03:28:39.735Z,1.80
2019-02-11T03:33:46.100Z,1.30
2019-02-11T03:38:51.517Z,1.40
2019-02-11T03:43:57.596Z,1.63
2019-02-11T03:49:03.131Z,1.83
2019-02-11T03:54:08.204Z,1.50
2019-02-11T03:59:13.438Z,1.40
2019-02-11T04:04:18.593Z,2.00
2019-02-11T04:09:23.828Z,1.93
2019-02-11T04:14:30.113Z,2.03
2019-02-11T04:19:35.632Z,2.10
2019-02-11T04:24:41.151Z,1.97
2019-02-11T04:29:46.635Z,2.20
2019-02-11T04:34:51.970Z,2.10
2019-02-11T04:39:57.862Z,1.70
2019-02-11T04:45:04.077Z,2.47
2019-02-11T04:50:09.732Z,2.10
2019-02-11T04:55:14.898Z,2.00
2019-02-11T05:00:20.890Z,2.40
2019-02-11T05:05:26.066Z,2.20
2019-02-11T05:10:31.700Z,2.00
2019-02-11T05:15:38.170Z,2.30
2019-02-11T05:20:44.289Z,2.07
2019-02-11T05:25:49.455Z,2.73
2019-02-11T05:30:55.568Z,2.73
2019-02-11T05:36:01.013Z,2.97
2019-02-11T05:41:07.605Z,2.70
2019-02-11T05:46:14.685Z,2.80
2019-02-11T05:51:20.714Z,2.50
2019-02-11T05:56:26.390Z,3.20
2019-02-11T06:01:31.668Z,2.83
2019-02-11T06:06:38.418Z,2.77
2019-02-11T06:11:45.634Z,2.83
2019-02-11T06:16:50.748Z,2.03
2019-02-11T06:21:56.590Z,2.10
2019-02-11T06:27:01.751Z,2.37
2019-02-11T06:32:07.183Z,2.20
2019-02-11T06:37:12.401Z,2.40
2019-02-11T06:42:17.940Z,2.67
2019-02-11T06:47:23.088Z,2.10
2019-02-11T06:52:28.264Z,2.33
2019-02-11T06:57:33.437Z,1.80
2019-02-11T07:02:39.032Z,2.40
2019-02-11T07:07:44.604Z,2.50
2019-02-11T07:12:50.957Z,2.97
2019-02-11T07:17:56.042Z,2.37
2019-02-11T07:23:01.280Z,2.10
2019-02-11T07:28:06.556Z,1.87
2019-02-11T07:33:12.459Z,2.10
2019-02-11T07:38:17.661Z,2.23
2019-02-11T07:43:26.770Z,1.87
2019-02-11T07:48:32.380Z,1.87
2019-02-11T07:53:37.556Z,2.03
2019-02-11T07:58:42.728Z,1.60
2019-02-11T08:03:48.171Z,2.00
2019-02-11T08:08:53.339Z,2.10
2019-02-11T08:13:59.505Z,1.80
2019-02-11T08:19:05.108Z,1.60
2019-02-11T08:24:10.209Z,1.67
2019-02-11T08:29:15.364Z,1.60
2019-02-11T08:34:20.863Z,1.43
2019-02-11T08:39:26.025Z,1.50
2019-02-11T08:44:33.619Z,1.40
2019-02-11T08:49:38.931Z,1.60
2019-02-11T08:54:45.322Z,1.40
2019-02-11T08:59:50.398Z,1.30
2019-02-11T09:04:55.938Z,1.10
2019-02-11T09:10:01.101Z,1.50
2019-02-11T09:15:08.301Z,2.00
2019-02-11T09:20:13.667Z,1.43
2019-02-11T09:25:19.108Z,1.50
2019-02-11T09:30:24.968Z,1.63
2019-02-11T09:35:30.165Z,1.30
2019-02-11T09:40:35.647Z,1.27
2019-02-11T09:45:41.298Z,1.30
2019-02-11T09:50:51.658Z,1.73
2019-02-11T09:55:56.820Z,1.30
2019-02-11T10:01:02.002Z,2.40
2019-02-11T10:06:07.471Z,1.33
2019-02-11T10:11:12.638Z,1.70
2019-02-11T10:16:18.607Z,1.50
2019-02-11T10:21:23.903Z,1.90
2019-02-11T10:26:29.070Z,1.50
2019-02-11T10:31:34.268Z,1.40
2019-02-11T10:36:39.712Z,1.50
2019-02-11T10:41:46.444Z,1.53
2019-02-11T10:46:51.716Z,1.30
2019-02-11T10:51:56.870Z,1.40
2019-02-11T10:57:02.895Z,1.50
2019-02-11T11:02:08.078Z,1.13
2019-02-11T11:07:13.258Z,1.50
2019-02-11T11:12:18.930Z,1.30
2019-02-11T11:17:25.202Z,1.30
2019-02-11T11:22:30.687Z,1.60
2019-02-11T11:27:36.261Z,0.97
2019-02-11T11:32:42.686Z,1.40
2019-02-11T11:37:48.101Z,1.50
2019-02-11T11:42:53.908Z,1.40
2019-02-11T11:47:59.094Z,1.30
2019-02-11T11:53:04.514Z,1.20
2019-02-11T11:58:09.988Z,1.17
2019-02-11T12:03:16.251Z,1.10
2019-02-11T12:08:21.841Z,1.40
2019-02-11T12:13:27.035Z,1.50
2019-02-11T12:18:32.238Z,1.57
2019-02-11T12:23:37.420Z,1.50
2019-02-11T12:28:43.579Z,1.37
2019-02-11T12:33:49.193Z,1.43
2019-02-11T12:38:54.408Z,1.40
2019-02-11T12:43:59.922Z,1.57
2019-02-11T12:49:05.136Z,1.77
2019-02-11T12:54:10.563Z,1.50
2019-02-11T12:59:15.764Z,1.40
2019-02-11T13:04:20.945Z,1.30
2019-02-11T13:09:26.145Z,1.60
2019-02-11T13:14:31.339Z,1.40
2019-02-11T13:19:36.879Z,1.43
2019-02-11T13:24:42.076Z,1.47
2019-02-11T13:29:48.205Z,1.80
2019-02-11T13:34:53.870Z,1.40
2019-02-11T13:39:59.368Z,1.40
2019-02-11T13:45:07.221Z,1.63
2019-02-11T13:50:15.058Z,1.80
2019-02-11T13:55:20.266Z,1.60
2019-02-11T14:00:31.527Z,1.53
2019-02-11T14:05:37.668Z,1.57
2019-02-11T14:10:42.942Z,1.50
2019-02-11T14:15:48.177Z,1.60
2019-02-11T14:20:53.672Z,1.93
2019-02-11T14:25:58.868Z,1.80
2019-02-11T14:31:04.505Z,1.83
2019-02-11T14:36:09.779Z,1.60
2019-02-11T14:41:15.833Z,1.30
2019-02-11T14:46:21.165Z,1.77
2019-02-11T14:51:27.078Z,1.90
2019-02-11T14:56:33.704Z,1.53
2019-02-11T15:01:39.170Z,1.70
2019-02-11T15:06:44.359Z,1.80
2019-02-11T15:11:50.496Z,1.70
2019-02-11T15:16:56.071Z,1.93
2019-02-11T15:22:01.584Z,1.43
2019-02-11T15:27:07.155Z,1.60
2019-02-11T15:32:12.472Z,1.73
2019-02-11T15:37:17.675Z,1.83
2019-02-11T15:42:22.963Z,1.50
2019-02-11T15:47:29.331Z,1.43
2019-02-11T15:52:34.803Z,1.30
2019-02-11T15:57:40.863Z,1.60
2019-02-11T16:02:46.163Z,1.50
2019-02-11T16:07:51.727Z,1.60
2019-02-11T16:12:57.023Z,2.00
2019-02-11T16:18:02.210Z,2.20
2019-02-11T16:23:08.472Z,1.80
2019-02-11T16:28:13.655Z,1.90
2019-02-11T16:33:19.266Z,1.90
2019-02-11T16:38:24.483Z,1.80
2019-02-11T16:43:30.034Z,1.87
2019-02-11T16:48:35.582Z,1.73
2019-02-11T16:53:40.760Z,1.60
2019-02-11T16:58:45.958Z,2.07
2019-02-11T17:03:51.150Z,2.20
2019-02-11T17:08:56.334Z,2.17
2019-02-11T17:14:02.532Z,1.70
2019-02-11T17:19:09.390Z,1.90
2019-02-11T17:24:14.619Z,2.17
2019-02-11T17:29:19.815Z,2.10
2019-02-11T17:34:25.378Z,1.83
2019-02-11T17:39:30.562Z,2.03
2019-02-11T17:44:36.425Z,2.10
2019-02-11T17:49:41.985Z,2.17
2019-02-11T17:54:47.171Z,2.23
2019-02-11T17:59:52.483Z,2.17
2019-02-11T18:04:58.529Z,2.17
2019-02-11T18:10:03.761Z,1.93
2019-02-11T18:15:09.456Z,2.00
2019-02-11T18:20:14.957Z,2.30
2019-02-11T18:25:21.111Z,2.30
2019-02-11T18:30:27.565Z,1.73
2019-02-11T18:35:32.811Z,2.30
2019-02-11T18:40:38.004Z,2.33
2019-02-11T18:45:43.503Z,2.10
2019-02-11T18:50:48.695Z,2.70
2019-02-11T18:55:53.886Z,2.40
2019-02-11T19:00:59.070Z,3.03
2019-02-11T19:06:04.246Z,3.03
2019-02-11T19:11:09.914Z,3.30
2019-02-11T19:16:15.377Z,2.30
2019-02-11T19:21:21.547Z,3.03
2019-02-11T19:26:28.407Z,2.57
2019-02-11T19:31:33.640Z,2.50
2019-02-11T19:36:38.891Z,1.90
2019-02-11T19:41:44.094Z,2.50
2019-02-11T19:46:49.289Z,2.60
2019-02-11T19:51:54.470Z,3.00
2019-02-11T19:57:00.764Z,3.57
2019-02-11T20:02:06.270Z,2.53
2019-02-11T20:07:11.466Z,2.63
2019-02-11T20:12:16.652Z,2.47
2019-02-11T20:17:22.733Z,2.10
2019-02-11T20:22:27.919Z,2.73
2019-02-11T20:27:33.110Z,2.50
2019-02-11T20:32:38.425Z,2.90
2019-02-11T20:37:43.634Z,2.60
2019-02-11T20:42:50.437Z,2.47
2019-02-11T20:47:55.862Z,4.73
2019-02-11T20:53:01.074Z,2.53
2019-02-11T20:58:06.779Z,2.53
2019-02-11T21:03:12.684Z,2.73
2019-02-11T21:08:18.103Z,2.50
2019-02-11T21:13:23.288Z,2.57
2019-02-11T21:18:28.491Z,2.40
2019-02-11T21:23:34.485Z,2.50
2019-02-11T21:28:39.722Z,2.40
2019-02-11T21:33:45.360Z,2.77
2019-02-11T21:38:50.534Z,2.03
2019-02-11T21:43:55.721Z,2.23
2019-02-11T21:49:04.145Z,2.53
2019-02-11T21:54:09.349Z,2.60
2019-02-11T21:59:16.181Z,2.27
2019-02-11T22:04:21.809Z,2.33
2019-02-11T22:09:27.090Z,2.60
2019-02-11T22:14:32.642Z,2.70
2019-02-11T22:19:38.235Z,2.33
2019-02-11T22:24:43.456Z,2.20
2019-02-11T22:29:48.745Z,2.57
2019-02-11T22:34:54.651Z,2.50
2019-02-11T22:40:01.771Z,2.27
2019-02-11T22:45:09.647Z,2.30
2019-02-11T22:50:14.929Z,2.47
2019-02-11T22:55:20.248Z,2.20
2019-02-11T23:00:47.825Z,1.80
2019-02-11T23:05:54.076Z,1.80
2019-02-11T23:10:59.392Z,1.80
2019-02-11T23:16:05.029Z,1.70
2019-02-11T23:21:10.871Z,1.70
2019-02-11T23:26:16.397Z,1.70
2019-02-11T23:31:22.078Z,2.20
2019-02-11T23:36:27.283Z,2.07
2019-02-11T23:41:32.474Z,1.40
2019-02-11T23:46:38.104Z,1.60
2019-02-11T23:51:43.306Z,1.90
2019-02-11T23:56:48.842Z,2.00
